createdAt,value
2023-05-06T00:01:30.154Z,9.52
2023-05-06T00:03:56.810Z,5.72
2023-05-06T00:06:23.539Z,7.40
2023-05-06T00:08:49.986Z,6.88
2023-05-06T00:11:17.758Z,6.95
2023-05-06T00:13:44.387Z,5.85
2023-05-06T00:16:11.010Z,9.02
2023-05-06T00:18:37.590Z,8.50
2023-05-06T00:21:04.277Z,9.10
2023-05-06T00:23:30.845Z,11.13
2023-05-06T00:25:57.319Z,9.55
2023-05-06T00:28:23.834Z,5.18
2023-05-06T00:30:50.366Z,13.60
2023-05-06T00:33:16.823Z,8.30
2023-05-06T00:35:43.352Z,6.47
2023-05-06T00:38:13.738Z,12.00
2023-05-06T00:40:42.066Z,7.53
2023-05-06T00:43:08.911Z,5.75
2023-05-06T00:45:36.201Z,5.50
2023-05-06T00:48:04.407Z,8.95
2023-05-06T00:50:32.624Z,6.47
2023-05-06T00:52:59.662Z,11.02
2023-05-06T00:55:26.579Z,10.63
2023-05-06T00:57:54.349Z,6.25
2023-05-06T01:00:20.953Z,5.25
2023-05-06T01:02:48.454Z,8.02
2023-05-06T01:05:18.571Z,5.57
2023-05-06T01:08:04.147Z,4.57
2023-05-06T01:10:42.300Z,5.35
2023-05-06T01:13:19.967Z,5.22
2023-05-06T01:15:47.499Z,5.45
2023-05-06T01:18:17.122Z,6.22
2023-05-06T01:20:52.617Z,7.15
2023-05-06T01:23:20.238Z,8.93
2023-05-06T01:25:46.744Z,6.22
2023-05-06T01:28:13.619Z,9.50
2023-05-06T01:31:01.128Z,8.35
2023-05-06T01:33:33.895Z,9.60
2023-05-06T01:36:23.126Z,8.93
2023-05-06T01:38:56.161Z,8.50
2023-05-06T01:41:22.987Z,10.90
2023-05-06T01:43:50.189Z,6.75
2023-05-06T01:46:20.864Z,6.22
2023-05-06T01:48:49.702Z,9.05
2023-05-06T01:51:16.170Z,7.30
2023-05-06T01:53:42.598Z,7.15
2023-05-06T01:56:09.056Z,11.95
2023-05-06T01:58:37.362Z,7.68
2023-05-06T02:01:31.395Z,46.03
2023-05-06T02:03:59.160Z,22.75
2023-05-06T02:06:28.036Z,21.25
2023-05-06T02:08:55.724Z,20.20
2023-05-06T02:11:24.676Z,22.27
2023-05-06T02:13:55.600Z,23.48
2023-05-06T02:16:23.211Z,21.08
2023-05-06T02:18:51.459Z,21.98
2023-05-06T02:21:19.364Z,20.40
2023-05-06T02:23:46.771Z,15.75
2023-05-06T02:26:14.653Z,18.60
2023-05-06T02:28:42.851Z,21.77
2023-05-06T02:31:16.591Z,21.15
2023-05-06T02:33:45.620Z,19.33
2023-05-06T02:36:13.601Z,20.10
2023-05-06T02:38:41.561Z,22.45
2023-05-06T02:41:09.036Z,23.00
2023-05-06T02:43:36.551Z,14.35
2023-05-06T02:46:04.945Z,15.63
2023-05-06T02:48:32.610Z,22.88
2023-05-06T02:51:00.567Z,20.48
2023-05-06T02:53:28.791Z,23.10
2023-05-06T02:55:56.384Z,25.52
2023-05-06T02:58:24.051Z,21.33
2023-05-06T03:00:51.653Z,19.58
2023-05-06T03:03:19.885Z,17.83
2023-05-06T03:05:47.596Z,20.88
2023-05-06T03:08:15.000Z,25.80
2023-05-06T03:10:42.797Z,21.83
2023-05-06T03:13:10.757Z,20.65
2023-05-06T03:15:38.832Z,23.13
2023-05-06T03:18:06.359Z,22.20
2023-05-06T03:20:34.747Z,23.77
2023-05-06T03:23:02.503Z,26.65
2023-05-06T03:25:30.489Z,21.50
2023-05-06T03:27:57.216Z,23.55
2023-05-06T03:30:24.971Z,18.92
2023-05-06T03:32:57.031Z,23.73
2023-05-06T03:35:30.170Z,25.40
2023-05-06T03:38:00.073Z,26.17
2023-05-06T03:40:34.298Z,24.42
2023-05-06T03:43:01.825Z,23.38
2023-05-06T03:45:28.764Z,15.05
2023-05-06T03:47:58.684Z,18.58
2023-05-06T03:50:27.141Z,23.42
2023-05-06T03:52:55.170Z,24.95
2023-05-06T03:55:25.225Z,23.48
2023-05-06T03:57:52.733Z,24.92
2023-05-06T04:00:21.194Z,21.55
2023-05-06T04:02:52.465Z,25.48
2023-05-06T04:05:25.825Z,19.90
2023-05-06T04:07:55.114Z,26.55
2023-05-06T04:10:23.238Z,27.75
2023-05-06T04:12:53.583Z,26.17
2023-05-06T04:15:33.149Z,27.77
2023-05-06T04:18:04.248Z,20.90
2023-05-06T04:20:31.968Z,22.25
2023-05-06T04:22:58.922Z,34.15
2023-05-06T04:25:26.960Z,23.70
2023-05-06T04:27:54.951Z,30.48
2023-05-06T04:30:23.772Z,28.48
2023-05-06T04:32:52.049Z,29.40
2023-05-06T04:35:19.966Z,25.20
2023-05-06T04:37:47.232Z,26.73
2023-05-06T04:40:21.043Z,22.60
2023-05-06T04:42:51.084Z,32.58
2023-05-06T04:45:23.113Z,31.23
2023-05-06T04:47:53.060Z,21.38
2023-05-06T04:50:20.929Z,24.30
2023-05-06T04:52:48.823Z,21.20
2023-05-06T04:55:18.985Z,20.52
2023-05-06T04:57:51.789Z,12.82
2023-05-06T05:00:19.859Z,12.88
2023-05-06T05:02:49.659Z,16.42
2023-05-06T05:05:17.826Z,18.80
2023-05-06T05:07:48.278Z,14.88
2023-05-06T05:10:15.829Z,13.70
2023-05-06T05:12:43.176Z,15.80
2023-05-06T05:15:12.135Z,14.20
2023-05-06T05:17:39.891Z,14.10
2023-05-06T05:20:07.786Z,16.48
2023-05-06T05:22:36.986Z,13.88
2023-05-06T05:25:07.463Z,21.05
2023-05-06T05:27:35.509Z,16.25
2023-05-06T05:30:02.945Z,15.93
2023-05-06T05:32:32.910Z,16.77
2023-05-06T05:35:00.518Z,22.30
2023-05-06T05:37:27.671Z,14.40
2023-05-06T05:39:54.814Z,11.95
2023-05-06T05:42:22.288Z,12.25
2023-05-06T05:44:50.057Z,12.65
2023-05-06T05:47:17.356Z,14.68
2023-05-06T05:49:45.128Z,14.65
2023-05-06T05:52:12.534Z,13.82
2023-05-06T05:54:40.044Z,12.88
2023-05-06T05:57:07.378Z,12.80
2023-05-06T05:59:34.456Z,15.48
2023-05-06T06:02:05.400Z,16.10
2023-05-06T06:04:33.329Z,11.63
2023-05-06T06:07:02.257Z,10.52
2023-05-06T06:09:32.314Z,7.22
2023-05-06T06:12:00.670Z,10.93
2023-05-06T06:14:30.708Z,15.18
2023-05-06T06:16:58.227Z,11.98
2023-05-06T06:19:25.889Z,8.55
2023-05-06T06:21:53.363Z,11.63
2023-05-06T06:24:20.937Z,10.15
2023-05-06T06:26:48.666Z,9.82
2023-05-06T06:29:15.842Z,14.48
2023-05-06T06:31:43.304Z,10.05
2023-05-06T06:34:12.983Z,8.52
2023-05-06T06:36:45.289Z,10.07
2023-05-06T06:39:13.327Z,7.13
2023-05-06T06:41:40.529Z,8.02
2023-05-06T06:44:08.149Z,9.77
2023-05-06T06:46:35.221Z,7.18
2023-05-06T06:49:02.153Z,9.10
2023-05-06T06:51:29.129Z,12.23
2023-05-06T06:53:56.601Z,11.60
2023-05-06T06:56:23.965Z,7.70
2023-05-06T06:58:53.110Z,9.00
2023-05-06T07:01:21.213Z,16.98
2023-05-06T07:03:48.924Z,9.63
2023-05-06T07:06:16.030Z,8.25
2023-05-06T07:08:43.402Z,10.02
2023-05-06T07:11:11.442Z,16.85
2023-05-06T07:13:38.960Z,7.55
2023-05-06T07:16:06.896Z,8.45
2023-05-06T07:18:34.844Z,8.77
2023-05-06T07:21:02.245Z,7.85
2023-05-06T07:23:31.938Z,7.68
2023-05-06T07:26:00.145Z,9.90
2023-05-06T07:28:27.481Z,5.60
2023-05-06T07:30:54.893Z,8.98
2023-05-06T07:33:22.407Z,9.77
2023-05-06T07:35:50.362Z,15.38
2023-05-06T07:38:17.710Z,6.07
2023-05-06T07:40:46.499Z,10.10
2023-05-06T07:43:14.415Z,7.53
2023-05-06T07:45:42.235Z,6.88
2023-05-06T07:48:09.763Z,7.22
2023-05-06T07:50:37.617Z,6.20
2023-05-06T07:53:05.612Z,11.20
2023-05-06T07:55:35.084Z,6.90
2023-05-06T07:58:02.695Z,6.57
2023-05-06T08:00:30.340Z,5.90
2023-05-06T08:02:58.109Z,8.52
2023-05-06T08:05:25.925Z,6.28
2023-05-06T08:07:54.760Z,7.72
2023-05-06T08:10:23.218Z,5.55
2023-05-06T08:12:50.497Z,6.78
2023-05-06T08:15:17.750Z,7.68
2023-05-06T08:17:44.881Z,5.00
2023-05-06T08:20:12.450Z,9.57
2023-05-06T08:22:40.504Z,6.93
2023-05-06T08:25:08.532Z,5.55
2023-05-06T08:27:36.138Z,5.03
2023-05-06T08:30:03.697Z,8.63
2023-05-06T08:32:30.907Z,4.68
2023-05-06T08:34:59.971Z,19.10
2023-05-06T08:37:27.070Z,8.82
2023-05-06T08:39:54.413Z,5.07
2023-05-06T08:42:22.484Z,5.97
2023-05-06T08:44:52.210Z,8.48
2023-05-06T08:47:20.940Z,4.75
2023-05-06T08:49:48.779Z,4.95
2023-05-06T08:52:15.797Z,6.03
2023-05-06T08:54:43.551Z,6.35
2023-05-06T08:57:14.756Z,4.60
2023-05-06T08:59:42.270Z,8.18
2023-05-06T09:02:11.686Z,7.90
2023-05-06T09:04:40.147Z,7.32
2023-05-06T09:07:08.518Z,4.00
2023-05-06T09:09:36.074Z,5.78
2023-05-06T09:12:03.446Z,8.43
2023-05-06T09:14:30.916Z,5.55
2023-05-06T09:16:58.586Z,6.88
2023-05-06T09:19:26.548Z,7.88
2023-05-06T09:21:54.063Z,7.80
2023-05-06T09:24:21.466Z,4.15
2023-05-06T09:26:48.957Z,8.63
2023-05-06T09:29:16.542Z,6.28
2023-05-06T09:31:44.648Z,7.45
2023-05-06T09:34:12.616Z,7.63
2023-05-06T09:36:40.003Z,5.05
2023-05-06T09:39:07.738Z,5.70
2023-05-06T09:41:35.710Z,9.15
2023-05-06T09:44:04.074Z,11.90
2023-05-06T09:46:31.902Z,6.38
2023-05-06T09:48:59.434Z,5.85
2023-05-06T09:51:28.037Z,9.55
2023-05-06T09:53:56.256Z,7.95
2023-05-06T09:56:24.201Z,6.57
2023-05-06T09:58:52.792Z,6.68
2023-05-06T10:01:32.696Z,6.82
2023-05-06T10:04:06.163Z,6.32
2023-05-06T10:06:36.139Z,7.72
2023-05-06T10:09:03.729Z,6.88
2023-05-06T10:11:32.431Z,6.20
2023-05-06T10:14:01.201Z,11.23
2023-05-06T10:16:28.604Z,6.28
2023-05-06T10:18:56.197Z,14.90
2023-05-06T10:21:26.735Z,6.22
2023-05-06T10:24:07.933Z,5.30
2023-05-06T10:26:39.334Z,7.10
2023-05-06T10:29:12.287Z,8.68
2023-05-06T10:31:41.691Z,5.22
2023-05-06T10:34:09.907Z,10.40
2023-05-06T10:36:38.296Z,6.03
2023-05-06T10:39:07.602Z,7.03
2023-05-06T10:41:37.649Z,7.47
2023-05-06T10:44:06.399Z,7.30
2023-05-06T10:46:53.420Z,9.77
2023-05-06T10:49:21.300Z,9.35
2023-05-06T10:52:12.723Z,6.65
2023-05-06T10:54:51.376Z,6.00
2023-05-06T10:57:21.431Z,6.30
2023-05-06T10:59:49.109Z,5.65
2023-05-06T11:02:21.125Z,6.93
2023-05-06T11:04:53.299Z,8.07
2023-05-06T11:07:24.681Z,5.30
2023-05-06T11:09:57.203Z,8.07
2023-05-06T11:12:45.056Z,6.47
2023-05-06T11:15:24.198Z,5.93
2023-05-06T11:17:52.385Z,7.53
2023-05-06T11:20:19.898Z,5.68
2023-05-06T11:22:47.089Z,6.93
2023-05-06T11:25:14.981Z,4.28
2023-05-06T11:27:43.323Z,6.95
2023-05-06T11:30:15.001Z,7.07
2023-05-06T11:32:43.639Z,6.35
2023-05-06T11:35:13.212Z,12.55
2023-05-06T11:37:43.505Z,3.58
2023-05-06T11:40:15.557Z,6.93
2023-05-06T11:42:43.224Z,6.05
2023-05-06T11:45:11.943Z,3.95
2023-05-06T11:47:43.724Z,12.95
2023-05-06T11:50:12.163Z,9.55
2023-05-06T11:52:40.636Z,5.15
2023-05-06T11:55:10.159Z,7.90
2023-05-06T11:57:37.324Z,5.47
2023-05-06T12:00:05.504Z,4.55
2023-05-06T12:02:39.138Z,7.55
2023-05-06T12:05:06.966Z,7.35
2023-05-06T12:07:34.488Z,7.55
2023-05-06T12:10:04.829Z,8.13
2023-05-06T12:12:33.642Z,5.28
2023-05-06T12:15:01.999Z,9.32
2023-05-06T12:17:29.845Z,6.78
2023-05-06T12:19:58.089Z,4.55
2023-05-06T12:22:25.052Z,13.88
2023-05-06T12:24:52.284Z,6.47
2023-05-06T12:27:31.505Z,4.82
2023-05-06T12:29:58.693Z,6.20
2023-05-06T12:32:26.186Z,4.57
2023-05-06T12:34:53.929Z,6.93
2023-05-06T12:37:26.834Z,6.13
2023-05-06T12:39:54.720Z,5.63
2023-05-06T12:42:24.068Z,5.03
2023-05-06T12:44:51.867Z,7.28
2023-05-06T12:47:20.515Z,5.63
2023-05-06T12:49:54.838Z,4.80
2023-05-06T12:52:23.587Z,5.32
2023-05-06T12:54:53.151Z,5.63
2023-05-06T12:57:20.891Z,7.22
2023-05-06T12:59:48.784Z,4.75
2023-05-06T13:02:16.170Z,6.85
2023-05-06T13:04:44.868Z,6.53
2023-05-06T13:07:12.656Z,6.13
2023-05-06T13:09:39.704Z,6.82
2023-05-06T13:12:07.397Z,5.90
2023-05-06T13:14:36.882Z,5.53
2023-05-06T13:17:07.077Z,8.32
2023-05-06T13:19:36.431Z,7.03
2023-05-06T13:22:04.576Z,5.70
2023-05-06T13:24:32.447Z,4.97
2023-05-06T13:27:02.906Z,6.13
2023-05-06T13:29:30.941Z,5.72
2023-05-06T13:31:59.304Z,8.57
2023-05-06T13:34:26.634Z,6.15
2023-05-06T13:36:55.133Z,6.00
2023-05-06T13:39:22.554Z,8.38
2023-05-06T13:41:50.474Z,6.72
2023-05-06T13:44:18.036Z,12.10
2023-05-06T13:46:46.316Z,6.95
2023-05-06T13:49:14.786Z,6.63
2023-05-06T13:51:42.026Z,7.88
2023-05-06T13:54:09.199Z,7.25
2023-05-06T13:56:36.524Z,7.95
2023-05-06T13:59:04.831Z,9.02
2023-05-06T14:01:32.663Z,9.95
2023-05-06T14:04:00.786Z,9.40
2023-05-06T14:06:28.412Z,9.80
2023-05-06T14:08:55.874Z,9.90
2023-05-06T14:11:23.130Z,7.00
2023-05-06T14:13:50.587Z,6.63
2023-05-06T14:16:18.213Z,8.90
2023-05-06T14:18:46.204Z,6.03
2023-05-06T14:21:13.988Z,7.85
2023-05-06T14:23:41.414Z,6.47
2023-05-06T14:26:08.568Z,8.35
2023-05-06T14:28:35.929Z,7.72
2023-05-06T14:31:03.162Z,6.95
2023-05-06T14:33:30.444Z,6.72
2023-05-06T14:35:58.707Z,9.05
2023-05-06T14:38:25.866Z,8.55
2023-05-06T14:40:52.927Z,7.72
2023-05-06T14:43:20.151Z,11.05
2023-05-06T14:45:47.923Z,10.02
2023-05-06T14:48:15.960Z,10.30
2023-05-06T14:50:44.018Z,10.95
2023-05-06T14:53:11.326Z,11.40
2023-05-06T14:55:38.839Z,8.93
2023-05-06T14:58:06.944Z,10.95
2023-05-06T15:00:35.111Z,8.45
2023-05-06T15:03:02.843Z,10.27
2023-05-06T15:05:31.080Z,8.85
2023-05-06T15:07:59.966Z,8.00
2023-05-06T15:10:27.587Z,7.70
2023-05-06T15:12:55.102Z,8.30
2023-05-06T15:15:23.749Z,6.80
2023-05-06T15:17:53.399Z,7.68
2023-05-06T15:20:21.223Z,9.68
2023-05-06T15:22:49.176Z,6.47
2023-05-06T15:25:26.576Z,7.55
2023-05-06T15:28:01.334Z,6.82
2023-05-06T15:30:28.307Z,8.50
2023-05-06T15:32:55.420Z,7.97
2023-05-06T15:35:23.155Z,8.73
2023-05-06T15:37:56.077Z,6.22
2023-05-06T15:40:26.071Z,8.90
2023-05-06T15:42:53.971Z,6.90
2023-05-06T15:45:22.278Z,11.82
2023-05-06T15:47:50.132Z,9.55
2023-05-06T15:50:31.959Z,10.77
2023-05-06T15:53:02.774Z,13.45
2023-05-06T15:55:35.159Z,10.07
2023-05-06T15:58:04.253Z,12.60
2023-05-06T16:00:31.604Z,11.77
2023-05-06T16:02:59.428Z,10.80
2023-05-06T16:05:27.163Z,11.50
2023-05-06T16:07:56.427Z,10.65
2023-05-06T16:10:24.502Z,10.52
2023-05-06T16:12:52.303Z,10.70
2023-05-06T16:15:19.829Z,10.35
2023-05-06T16:17:47.289Z,11.45
2023-05-06T16:20:14.959Z,11.80
2023-05-06T16:22:42.851Z,10.85
2023-05-06T16:25:10.163Z,10.82
2023-05-06T16:27:37.781Z,11.38
2023-05-06T16:30:05.500Z,9.13
2023-05-06T16:32:36.335Z,11.52
2023-05-06T16:35:04.555Z,10.57
2023-05-06T16:37:32.156Z,9.05
2023-05-06T16:39:59.368Z,9.93
2023-05-06T16:42:27.170Z,10.18
2023-05-06T16:44:55.300Z,8.80
2023-05-06T16:47:25.984Z,12.82
2023-05-06T16:49:54.371Z,10.05
2023-05-06T16:52:22.421Z,9.55
2023-05-06T16:54:52.121Z,11.80
2023-05-06T16:57:19.656Z,11.20
2023-05-06T16:59:46.837Z,11.98
2023-05-06T17:02:14.101Z,11.85
2023-05-06T17:04:42.023Z,10.88
2023-05-06T17:07:11.588Z,8.75
2023-05-06T17:09:39.848Z,11.52
2023-05-06T17:12:08.035Z,9.00
2023-05-06T17:14:35.899Z,9.00
2023-05-06T17:17:05.751Z,10.40
2023-05-06T17:19:33.563Z,8.98
2023-05-06T17:22:01.034Z,10.13
2023-05-06T17:24:31.253Z,10.50
2023-05-06T17:26:59.110Z,9.35
2023-05-06T17:29:26.241Z,10.95
2023-05-06T17:31:56.126Z,8.35
2023-05-06T17:34:26.719Z,8.75
2023-05-06T17:36:53.804Z,9.27
2023-05-06T17:39:23.204Z,10.63
2023-05-06T17:41:50.766Z,8.90
2023-05-06T17:44:20.198Z,11.50
2023-05-06T17:46:50.300Z,11.07
2023-05-06T17:49:17.580Z,9.70
2023-05-06T17:51:46.397Z,9.48
2023-05-06T17:54:13.617Z,7.55
2023-05-06T17:56:40.715Z,8.32
2023-05-06T17:59:08.131Z,8.52
2023-05-06T18:01:35.118Z,11.88
2023-05-06T18:04:02.308Z,9.05
2023-05-06T18:06:29.367Z,7.53
2023-05-06T18:08:56.465Z,6.28
2023-05-06T18:11:24.178Z,9.95
2023-05-06T18:13:51.273Z,8.07
2023-05-06T18:16:18.415Z,6.68
2023-05-06T18:18:45.516Z,7.50
2023-05-06T18:21:12.676Z,6.63
2023-05-06T18:23:39.774Z,7.47
2023-05-06T18:26:07.167Z,10.57
2023-05-06T18:28:36.443Z,8.38
2023-05-06T18:31:03.579Z,6.65
2023-05-06T18:33:30.986Z,9.50
2023-05-06T18:35:57.974Z,8.57
2023-05-06T18:38:26.710Z,8.90
2023-05-06T18:40:54.116Z,9.98
2023-05-06T18:43:21.266Z,7.88
2023-05-06T18:45:48.351Z,8.50
2023-05-06T18:48:15.361Z,8.65
2023-05-06T18:50:42.918Z,7.53
2023-05-06T18:53:09.863Z,8.30
2023-05-06T18:55:37.425Z,8.27
2023-05-06T18:58:06.143Z,8.15
2023-05-06T19:00:33.513Z,8.40
2023-05-06T19:03:00.926Z,8.20
2023-05-06T19:05:28.015Z,8.73
2023-05-06T19:07:54.963Z,11.02
2023-05-06T19:10:21.958Z,8.07
2023-05-06T19:12:49.778Z,8.23
2023-05-06T19:15:19.124Z,9.80
2023-05-06T19:17:46.064Z,7.53
2023-05-06T19:20:14.602Z,9.40
2023-05-06T19:22:41.603Z,10.15
2023-05-06T19:25:09.335Z,8.02
2023-05-06T19:27:36.814Z,8.90
2023-05-06T19:30:04.281Z,9.48
2023-05-06T19:32:32.676Z,8.52
2023-05-06T19:35:06.094Z,8.82
2023-05-06T19:40:03.010Z,10.02
2023-05-06T19:42:31.101Z,8.30
2023-05-06T19:44:58.122Z,10.25
2023-05-06T19:47:25.387Z,10.07
2023-05-06T19:49:52.582Z,10.02
2023-05-06T19:52:19.599Z,8.63
2023-05-06T19:54:46.615Z,8.20
2023-05-06T19:57:13.894Z,9.25
2023-05-06T19:59:40.920Z,9.77
2023-05-06T20:02:10.563Z,9.32
2023-05-06T20:04:37.893Z,8.35
2023-05-06T20:07:04.916Z,8.98
2023-05-06T20:09:31.862Z,8.60
2023-05-06T20:11:59.286Z,11.20
2023-05-06T20:14:26.327Z,10.85
2023-05-06T20:16:53.326Z,8.45
2023-05-06T20:19:22.696Z,7.07
2023-05-06T20:21:49.767Z,8.63
2023-05-06T20:24:16.708Z,7.65
2023-05-06T20:26:43.563Z,9.23
2023-05-06T20:29:10.576Z,9.20
2023-05-06T20:31:37.780Z,8.90
2023-05-06T20:34:04.816Z,9.02
2023-05-06T20:36:31.854Z,9.68
2023-05-06T20:39:00.728Z,10.43
2023-05-06T20:41:27.676Z,9.05
2023-05-06T20:43:55.766Z,9.98
2023-05-06T20:46:23.073Z,8.63
2023-05-06T20:48:52.000Z,10.23
2023-05-06T20:51:18.955Z,8.77
2023-05-06T20:53:49.049Z,7.63
2023-05-06T20:56:26.056Z,10.48
2023-05-06T20:58:53.475Z,8.65
2023-05-06T21:01:21.420Z,10.15
2023-05-06T21:03:48.701Z,9.15
2023-05-06T21:06:16.471Z,8.73
2023-05-06T21:08:44.239Z,7.90
2023-05-06T21:11:11.213Z,8.88
2023-05-06T21:13:38.135Z,9.00
2023-05-06T21:16:07.717Z,6.97
2023-05-06T21:18:34.959Z,8.73
2023-05-06T21:21:02.113Z,9.18
2023-05-06T21:23:29.064Z,7.18
2023-05-06T21:25:56.236Z,9.65
2023-05-06T21:28:23.161Z,5.97
2023-05-06T21:30:50.237Z,7.95
2023-05-06T21:33:17.269Z,8.57
2023-05-06T21:35:44.221Z,8.15
2023-05-06T21:38:11.346Z,9.10
2023-05-06T21:40:38.409Z,8.43
2023-05-06T21:43:05.963Z,5.93
2023-05-06T21:45:33.017Z,7.13
2023-05-06T21:48:00.297Z,7.07
2023-05-06T21:50:27.398Z,8.32
2023-05-06T21:52:54.455Z,6.63
2023-05-06T21:55:21.388Z,7.03
2023-05-06T21:57:48.661Z,6.22
2023-05-06T22:00:16.101Z,6.80
2023-05-06T22:02:46.539Z,7.93
2023-05-06T22:05:13.819Z,7.35
2023-05-06T22:07:41.029Z,6.60
2023-05-06T22:10:08.587Z,7.15
2023-05-06T22:12:36.558Z,7.65
2023-05-06T22:15:03.819Z,7.28
2023-05-06T22:17:30.991Z,7.15
2023-05-06T22:19:58.208Z,6.50
2023-05-06T22:22:25.777Z,5.97
2023-05-06T22:24:52.746Z,6.22
2023-05-06T22:27:19.985Z,6.78
2023-05-06T22:29:47.228Z,5.93
2023-05-06T22:32:14.665Z,7.45
2023-05-06T22:34:41.841Z,5.22
2023-05-06T22:37:09.833Z,5.70
2023-05-06T22:39:36.766Z,6.70
2023-05-06T22:42:03.629Z,5.13
2023-05-06T22:44:30.518Z,6.22
2023-05-06T22:46:57.693Z,6.13
2023-05-06T22:49:28.466Z,5.05
2023-05-06T22:51:56.504Z,7.18
2023-05-06T22:54:24.031Z,6.53
2023-05-06T22:56:51.519Z,5.85
2023-05-06T22:59:18.762Z,8.10
2023-05-06T23:01:45.747Z,7.20
2023-05-06T23:04:13.462Z,6.43
2023-05-06T23:06:41.338Z,7.68
2023-05-06T23:09:08.476Z,4.75
2023-05-06T23:11:35.624Z,5.55
2023-05-06T23:14:02.894Z,8.10
2023-05-06T23:16:30.237Z,6.32
2023-05-06T23:18:57.483Z,5.80
2023-05-06T23:21:24.616Z,7.32
2023-05-06T23:23:51.687Z,6.60
2023-05-06T23:26:18.711Z,7.47
2023-05-06T23:28:46.071Z,7.53
2023-05-06T23:31:13.385Z,6.07
2023-05-06T23:33:40.392Z,6.18
2023-05-06T23:36:07.620Z,6.85
2023-05-06T23:38:34.781Z,6.22
2023-05-06T23:41:01.732Z,8.40
2023-05-06T23:43:28.780Z,6.97
2023-05-06T23:45:55.934Z,5.53
2023-05-06T23:48:23.061Z,5.35
2023-05-06T23:50:50.143Z,5.65
2023-05-06T23:53:17.389Z,7.28
2023-05-06T23:55:44.607Z,6.40
2023-05-06T23:58:11.759Z,6.57
